Portada
METAR-TAF:

METAR-TAF

Aeroports :

Vorónej, Rússia

latitud: 51-39N, longitud: 039-15E, altitud: 154 m

Observació

L'informe es va fer fa 24 minuts, a les 08:00 UTC
Vent 8 kt del Sud-Est
Temperatura 13°C
Humitat 28%
Pressió 1002 hPa
Visibilitat 10 km o més
Cel ennuvolat a una alçada de 1600 ft

METAR: UUOO 300800Z 14004MPS 9999 BKN016 13/M05 Q1002 R12/090070 NOSIG RMK QFE738

Hora: 11:24 (08:24 UTC)

Pronòstic

L'informe es va fer fa 3 hores i 24 minuts, a les 05:00 UTC
Pronòstic vàlid del 30 a les 06 UTC al 30 a les 15 UTC
Vent 6 kt del Sud/Sud-Est
Visibilitat 10 km o més
sense núvols per sota de 1500 mi sense presència de cumulonimbus.

TAF: UUOO 300500Z 3006/3015 15003MPS CAVOK

Observacions i pronòstics meteorològics de més de 4000 aeroports (METAR i TAF).

Les estacions disponibles són els punts grocs i vermells al mapa.

Posi el ratolí al punt desitjat per veure el nom de l'estació.

Feu clic per veure les observacions i els pronòstics meteorològics.

Per canviar el mapa: feu clic els botons verds amb una creu de color negre per apropar; al botó verd amb un guió per allunyar la imatge; o en les fletxes verdes per a mapes adjacents.


METAR-TAF: